sensor_id;sensor_type;location;lat;lon;timestamp;pressure;altitude;pressure_sealevel;temperature;humidity
80116;BME280;69423;47.608;19.366;2023-11-21T00:00:12;98453.13;;;3.91;100.00
80116;BME280;69423;47.608;19.366;2023-11-21T00:00:44;98454.59;;;3.85;100.00
80116;BME280;69423;47.608;19.366;2023-11-21T00:01:16;98450.28;;;3.84;100.00
80116;BME280;69423;47.608;19.366;2023-11-21T00:01:47;98453.47;;;3.88;100.00
80116;BME280;69423;47.608;19.366;2023-11-21T00:02:18;98451.78;;;3.87;100.00
80116;BME280;69423;47.608;19.366;2023-11-21T00:02:49;98453.59;;;3.87;100.00
80116;BME280;69423;47.608;19.366;2023-11-21T00:03:20;98449.81;;;3.89;100.00
80116;BME280;69423;47.608;19.366;2023-11-21T00:03:54;98445.41;;;3.90;100.00
80116;BME280;69423;47.608;19.366;2023-11-21T00:04:26;98457.44;;;3.92;100.00
80116;BME280;69423;47.608;19.366;2023-11-21T00:04:58;98456.44;;;3.93;100.00
80116;BME280;69423;47.608;19.366;2023-11-21T00:05:29;98449.69;;;3.91;100.00
80116;BME280;69423;47.608;19.366;2023-11-21T00:06:00;98457.91;;;3.88;100.00
80116;BME280;69423;47.608;19.366;2023-11-21T00:06:31;98458.19;;;3.84;100.00
80116;BME280;69423;47.608;19.366;2023-11-21T00:07:02;98456.56;;;3.83;100.00
80116;BME280;69423;47.608;19.366;2023-11-21T00:07:34;98454.88;;;3.82;100.00
80116;BME280;69423;47.608;19.366;2023-11-21T00:08:05;98457.06;;;3.87;100.00
80116;BME280;69423;47.608;19.366;2023-11-21T00:08:37;98459.03;;;3.85;100.00
80116;BME280;69423;47.608;19.366;2023-11-21T00:09:08;98459.63;;;3.79;100.00
80116;BME280;69423;47.608;19.366;2023-11-21T00:09:39;98455.22;;;3.79;100.00
80116;BME280;69423;47.608;19.366;2023-11-21T00:10:11;98457.84;;;3.79;100.00
80116;BME280;69423;47.608;19.366;2023-11-21T00:10:44;98459.47;;;3.80;100.00
80116;BME280;69423;47.608;19.366;2023-11-21T00:11:15;98464.91;;;3.79;100.00
80116;BME280;69423;47.608;19.366;2023-11-21T00:11:46;98461.97;;;3.82;100.00
80116;BME280;69423;47.608;19.366;2023-11-21T00:12:18;98457.59;;;3.91;100.00
80116;BME280;69423;47.608;19.366;2023-11-21T00:12:49;98452.31;;;3.91;100.00
80116;BME280;69423;47.608;19.366;2023-11-21T00:13:20;98460.09;;;3.92;100.00
80116;BME280;69423;47.608;19.366;2023-11-21T00:13:51;98461.22;;;3.90;100.00
80116;BME280;69423;47.608;19.366;2023-11-21T00:14:22;98456.91;;;3.89;100.00
80116;BME280;69423;47.608;19.366;2023-11-21T00:14:53;98459.19;;;3.83;100.00
80116;BME280;69423;47.608;19.366;2023-11-21T00:15:24;98462.13;;;3.80;100.00
80116;BME280;69423;47.608;19.366;2023-11-21T00:15:57;98456.16;;;3.78;100.00
80116;BME280;69423;47.608;19.366;2023-11-21T00:16:28;98452.56;;;3.79;100.00
80116;BME280;69423;47.608;19.366;2023-11-21T00:16:59;98459.88;;;3.85;100.00
80116;BME280;69423;47.608;19.366;2023-11-21T00:17:30;98452.63;;;3.88;100.00
80116;BME280;69423;47.608;19.366;2023-11-21T00:18:01;98450.97;;;3.87;100.00
80116;BME280;69423;47.608;19.366;2023-11-21T00:18:32;98451.78;;;3.87;100.00
80116;BME280;69423;47.608;19.366;2023-11-21T00:19:03;98456.25;;;3.87;100.00
80116;BME280;69423;47.608;19.366;2023-11-21T00:19:34;98449.00;;;3.89;100.00
80116;BME280;69423;47.608;19.366;2023-11-21T00:20:06;98454.81;;;3.92;100.00
80116;BME280;69423;47.608;19.366;2023-11-21T00:20:37;98450.34;;;3.93;100.00
80116;BME280;69423;47.608;19.366;2023-11-21T00:21:08;98457.31;;;3.94;100.00
80116;BME280;69423;47.608;19.366;2023-11-21T00:21:43;98450.69;;;3.90;100.00
80116;BME280;69423;47.608;19.366;2023-11-21T00:22:15;98445.75;;;3.95;100.00
80116;BME280;69423;47.608;19.366;2023-11-21T00:22:46;98446.44;;;3.97;100.00
80116;BME280;69423;47.608;19.366;2023-11-21T00:23:18;98452.53;;;3.97;100.00
80116;BME280;69423;47.608;19.366;2023-11-21T00:23:49;98453.34;;;3.98;100.00
80116;BME280;69423;47.608;19.366;2023-11-21T00:24:20;98454.34;;;3.97;100.00
80116;BME280;69423;47.608;19.366;2023-11-21T00:24:51;98452.66;;;3.96;100.00
80116;BME280;69423;47.608;19.366;2023-11-21T00:25:23;98459.63;;;3.97;100.00
80116;BME280;69423;47.608;19.366;2023-11-21T00:25:55;98464.44;;;4.01;100.00
80116;BME280;69423;47.608;19.366;2023-11-21T00:26:26;98459.97;;;4.02;100.00
80116;BME280;69423;47.608;19.366;2023-11-21T00:26:57;98462.47;;;4.03;100.00
80116;BME280;69423;47.608;19.366;2023-11-21T00:27:28;98465.94;;;4.04;100.00
80116;BME280;69423;47.608;19.366;2023-11-21T00:27:59;98461.66;;;4.03;100.00
80116;BME280;69423;47.608;19.366;2023-11-21T00:28:32;98455.03;;;3.99;100.00
80116;BME280;69423;47.608;19.366;2023-11-21T00:29:03;98466.25;;;4.01;100.00
80116;BME280;69423;47.608;19.366;2023-11-21T00:29:34;98466.53;;;3.98;100.00
80116;BME280;69423;47.608;19.366;2023-11-21T00:30:05;98461.91;;;3.92;100.00
80116;BME280;69423;47.608;19.366;2023-11-21T00:30:37;98470.09;;;3.89;100.00
80116;BME280;69423;47.608;19.366;2023-11-21T00:31:08;98473.88;;;3.86;100.00
80116;BME280;69423;47.608;19.366;2023-11-21T00:31:39;98471.25;;;3.86;100.00
80116;BME280;69423;47.608;19.366;2023-11-21T00:32:10;98468.47;;;3.88;100.00
80116;BME280;69423;47.608;19.366;2023-11-21T00:32:41;98467.59;;;3.87;100.00
80116;BME280;69423;47.608;19.366;2023-11-21T00:33:13;98462.34;;;3.87;100.00
80116;BME280;69423;47.608;19.366;2023-11-21T00:33:44;98468.75;;;3.84;100.00
80116;BME280;69423;47.608;19.366;2023-11-21T00:34:15;98465.81;;;3.88;100.00
80116;BME280;69423;47.608;19.366;2023-11-21T00:34:46;98462.72;;;3.92;100.00
80116;BME280;69423;47.608;19.366;2023-11-21T00:35:17;98468.50;;;3.96;100.00
80116;BME280;69423;47.608;19.366;2023-11-21T00:35:48;98465.34;;;3.92;100.00
80116;BME280;69423;47.608;19.366;2023-11-21T00:36:19;98462.19;;;3.89;100.00
80116;BME280;69423;47.608;19.366;2023-11-21T00:36:50;98467.78;;;3.85;100.00
80116;BME280;69423;47.608;19.366;2023-11-21T00:37:22;98461.16;;;3.81;100.00
80116;BME280;69423;47.608;19.366;2023-11-21T00:37:53;98464.91;;;3.79;100.00
80116;BME280;69423;47.608;19.366;2023-11-21T00:38:24;98468.31;;;3.71;100.00
80116;BME280;69423;47.608;19.366;2023-11-21T00:38:55;98461.97;;;3.64;100.00
80116;BME280;69423;47.608;19.366;2023-11-21T00:39:26;98465.16;;;3.68;100.00
80116;BME280;69423;47.608;19.366;2023-11-21T00:39:58;98467.78;;;3.68;100.00
80116;BME280;69423;47.608;19.366;2023-11-21T00:40:29;98465.28;;;3.66;100.00
80116;BME280;69423;47.608;19.366;2023-11-21T00:41:00;98460.69;;;3.68;100.00
80116;BME280;69423;47.608;19.366;2023-11-21T00:41:31;98454.75;;;3.66;100.00
80116;BME280;69423;47.608;19.366;2023-11-21T00:42:03;98457.25;;;3.68;100.00
80116;BME280;69423;47.608;19.366;2023-11-21T00:42:35;98455.56;;;3.67;100.00
80116;BME280;69423;47.608;19.366;2023-11-21T00:43:06;98450.16;;;3.68;100.00
80116;BME280;69423;47.608;19.366;2023-11-21T00:43:37;98452.50;;;3.71;100.00
80116;BME280;69423;47.608;19.366;2023-11-21T00:44:08;98451.28;;;3.65;100.00
80116;BME280;69423;47.608;19.366;2023-11-21T00:44:39;98451.44;;;3.64;100.00
80116;BME280;69423;47.608;19.366;2023-11-21T00:45:10;98446.69;;;3.68;100.00
80116;BME280;69423;47.608;19.366;2023-11-21T00:45:42;98453.09;;;3.65;100.00
80116;BME280;69423;47.608;19.366;2023-11-21T00:46:13;98456.69;;;3.64;100.00
80116;BME280;69423;47.608;19.366;2023-11-21T00:46:44;98456.19;;;3.60;100.00
80116;BME280;69423;47.608;19.366;2023-11-21T00:47:15;98457.31;;;3.58;100.00
80116;BME280;69423;47.608;19.366;2023-11-21T00:47:46;98454.84;;;3.56;100.00
80116;BME280;69423;47.608;19.366;2023-11-21T00:48:17;98452.94;;;3.49;100.00
80116;BME280;69423;47.608;19.366;2023-11-21T00:48:51;98452.50;;;3.53;100.00
80116;BME280;69423;47.608;19.366;2023-11-21T00:49:22;98456.94;;;3.53;100.00
80116;BME280;69423;47.608;19.366;2023-11-21T00:49:53;98459.03;;;3.49;100.00
80116;BME280;69423;47.608;19.366;2023-11-21T00:50:25;98456.53;;;3.48;100.00
80116;BME280;69423;47.608;19.366;2023-11-21T00:50:56;98458.22;;;3.49;100.00
80116;BME280;69423;47.608;19.366;2023-11-21T00:51:27;98462.06;;;3.54;100.00
80116;BME280;69423;47.608;19.366;2023-11-21T00:51:58;98457.03;;;3.61;100.00
80116;BME280;69423;47.608;19.366;2023-11-21T00:52:29;98458.06;;;3.68;100.00
80116;BME280;69423;47.608;19.366;2023-11-21T00:53:00;98455.81;;;3.73;100.00
80116;BME280;69423;47.608;19.366;2023-11-21T00:53:32;98459.81;;;3.77;100.00
80116;BME280;69423;47.608;19.366;2023-11-21T00:54:04;98454.34;;;3.79;100.00
80116;BME280;69423;47.608;19.366;2023-11-21T00:54:35;98454.00;;;3.74;100.00
80116;BME280;69423;47.608;19.366;2023-11-21T00:55:07;98452.78;;;3.68;100.00
80116;BME280;69423;47.608;19.366;2023-11-21T00:55:38;98453.09;;;3.65;100.00
80116;BME280;69423;47.608;19.366;2023-11-21T00:56:12;98449.25;;;3.59;100.00
80116;BME280;69423;47.608;19.366;2023-11-21T00:56:44;98453.72;;;3.59;100.00
80116;BME280;69423;47.608;19.366;2023-11-21T00:57:15;98455.53;;;3.58;100.00
80116;BME280;69423;47.608;19.366;2023-11-21T00:57:46;98451.88;;;3.59;100.00
80116;BME280;69423;47.608;19.366;2023-11-21T00:58:17;98443.31;;;3.57;100.00
80116;BME280;69423;47.608;19.366;2023-11-21T00:58:48;98453.16;;;3.55;100.00
80116;BME280;69423;47.608;19.366;2023-11-21T00:59:23;98450.69;;;3.54;100.00
80116;BME280;69423;47.608;19.366;2023-11-21T00:59:54;98444.28;;;3.56;100.00
80116;BME280;69423;47.608;19.366;2023-11-21T01:00:25;98454.97;;;3.55;100.00
80116;BME280;69423;47.608;19.366;2023-11-21T01:00:56;98440.31;;;3.52;100.00
80116;BME280;69423;47.608;19.366;2023-11-21T01:01:28;98450.00;;;3.52;100.00
80116;BME280;69423;47.608;19.366;2023-11-21T01:01:59;98446.84;;;3.48;100.00
80116;BME280;69423;47.608;19.366;2023-11-21T01:02:32;98452.94;;;3.49;100.00
80116;BME280;69423;47.608;19.366;2023-11-21T01:03:03;98449.63;;;3.47;100.00
80116;BME280;69423;47.608;19.366;2023-11-21T01:03:34;98448.50;;;3.49;100.00
80116;BME280;69423;47.608;19.366;2023-11-21T01:04:05;98457.53;;;3.47;100.00
80116;BME280;69423;47.608;19.366;2023-11-21T01:04:37;98453.78;;;3.49;100.00
80116;BME280;69423;47.608;19.366;2023-11-21T01:05:08;98450.69;;;3.54;100.00
80116;BME280;69423;47.608;19.366;2023-11-21T01:05:39;98450.84;;;3.52;100.00
80116;BME280;69423;47.608;19.366;2023-11-21T01:06:10;98447.69;;;3.49;100.00
80116;BME280;69423;47.608;19.366;2023-11-21T01:06:41;98440.72;;;3.48;100.00
80116;BME280;69423;47.608;19.366;2023-11-21T01:07:12;98449.91;;;3.43;100.00
80116;BME280;69423;47.608;19.366;2023-11-21T01:07:44;98442.88;;;3.44;100.00
80116;BME280;69423;47.608;19.366;2023-11-21T01:08:15;98437.41;;;3.45;100.00
80116;BME280;69423;47.608;19.366;2023-11-21T01:08:46;98437.41;;;3.45;100.00
80116;BME280;69423;47.608;19.366;2023-11-21T01:09:17;98440.22;;;3.44;100.00
80116;BME280;69423;47.608;19.366;2023-11-21T01:09:49;98444.66;;;3.43;100.00
80116;BME280;69423;47.608;19.366;2023-11-21T01:10:20;98440.50;;;3.41;100.00
80116;BME280;69423;47.608;19.366;2023-11-21T01:10:51;98443.28;;;3.39;100.00
80116;BME280;69423;47.608;19.366;2023-11-21T01:11:22;98439.97;;;3.37;100.00
80116;BME280;69423;47.608;19.366;2023-11-21T01:11:53;98449.84;;;3.35;100.00
80116;BME280;69423;47.608;19.366;2023-11-21T01:12:24;98442.09;;;3.34;100.00
80116;BME280;69423;47.608;19.366;2023-11-21T01:12:56;98437.94;;;3.31;100.00
80116;BME280;69423;47.608;19.366;2023-11-21T01:13:28;98436.66;;;3.35;100.00
80116;BME280;69423;47.608;19.366;2023-11-21T01:14:00;98438.34;;;3.36;100.00
80116;BME280;69423;47.608;19.366;2023-11-21T01:14:31;98445.56;;;3.34;100.00
80116;BME280;69423;47.608;19.366;2023-11-21T01:15:03;98437.25;;;3.29;100.00
80116;BME280;69423;47.608;19.366;2023-11-21T01:15:34;98440.44;;;3.33;100.00
80116;BME280;69423;47.608;19.366;2023-11-21T01:16:06;98432.06;;;3.37;100.00
80116;BME280;69423;47.608;19.366;2023-11-21T01:16:37;98437.19;;;3.39;100.00
80116;BME280;69423;47.608;19.366;2023-11-21T01:17:08;98439.69;;;3.40;100.00
80116;BME280;69423;47.608;19.366;2023-11-21T01:17:39;98445.41;;;3.36;100.00
80116;BME280;69423;47.608;19.366;2023-11-21T01:18:11;98431.41;;;3.35;100.00
80116;BME280;69423;47.608;19.366;2023-11-21T01:18:42;98446.25;;;3.36;100.00
80116;BME280;69423;47.608;19.366;2023-11-21T01:19:14;98445.25;;;3.37;100.00
80116;BME280;69423;47.608;19.366;2023-11-21T01:19:45;98449.00;;;3.35;100.00
80116;BME280;69423;47.608;19.366;2023-11-21T01:20:16;98439.47;;;3.34;100.00
80116;BME280;69423;47.608;19.366;2023-11-21T01:20:48;98448.19;;;3.34;100.00
80116;BME280;69423;47.608;19.366;2023-11-21T01:21:19;98449.16;;;3.33;100.00
80116;BME280;69423;47.608;19.366;2023-11-21T01:21:50;98448.66;;;3.30;100.00
80116;BME280;69423;47.608;19.366;2023-11-21T01:22:22;98444.50;;;3.27;100.00
80116;BME280;69423;47.608;19.366;2023-11-21T01:22:56;98447.16;;;3.27;100.00
80116;BME280;69423;47.608;19.366;2023-11-21T01:23:27;98451.97;;;3.32;100.00
80116;BME280;69423;47.608;19.366;2023-11-21T01:23:58;98446.84;;;3.30;100.00
80116;BME280;69423;47.608;19.366;2023-11-21T01:24:29;98448.66;;;3.30;100.00
80116;BME280;69423;47.608;19.366;2023-11-21T01:25:00;98452.94;;;3.31;100.00
80116;BME280;69423;47.608;19.366;2023-11-21T01:25:31;98455.41;;;3.32;100.00
80116;BME280;69423;47.608;19.366;2023-11-21T01:26:02;98446.69;;;3.32;100.00
80116;BME280;69423;47.608;19.366;2023-11-21T01:26:34;98447.88;;;3.37;100.00
80116;BME280;69423;47.608;19.366;2023-11-21T01:27:05;98441.50;;;3.40;100.00
80116;BME280;69423;47.608;19.366;2023-11-21T01:27:36;98448.56;;;3.39;100.00
80116;BME280;69423;47.608;19.366;2023-11-21T01:28:10;98447.19;;;3.35;100.00
80116;BME280;69423;47.608;19.366;2023-11-21T01:28:41;98444.28;;;3.38;100.00
80116;BME280;69423;47.608;19.366;2023-11-21T01:29:13;98442.31;;;3.40;100.00
80116;BME280;69423;47.608;19.366;2023-11-21T01:29:44;98447.88;;;3.37;100.00
80116;BME280;69423;47.608;19.366;2023-11-21T01:30:15;98448.88;;;3.36;100.00
80116;BME280;69423;47.608;19.366;2023-11-21T01:30:48;98453.31;;;3.36;100.00
80116;BME280;69423;47.608;19.366;2023-11-21T01:31:19;98446.09;;;3.38;100.00
80116;BME280;69423;47.608;19.366;2023-11-21T01:31:51;98447.69;;;3.49;100.00
80116;BME280;69423;47.608;19.366;2023-11-21T01:32:22;98444.59;;;3.53;100.00
80116;BME280;69423;47.608;19.366;2023-11-21T01:32:53;98445.59;;;3.52;100.00
80116;BME280;69423;47.608;19.366;2023-11-21T01:33:24;98442.53;;;3.47;100.00
80116;BME280;69423;47.608;19.366;2023-11-21T01:33:56;98442.53;;;3.47;100.00
80116;BME280;69423;47.608;19.366;2023-11-21T01:34:27;98443.38;;;3.48;100.00
80116;BME280;69423;47.608;19.366;2023-11-21T01:34:59;98445.19;;;3.47;100.00
80116;BME280;69423;47.608;19.366;2023-11-21T01:35:30;98445.31;;;3.45;100.00
80116;BME280;69423;47.608;19.366;2023-11-21T01:36:01;98444.66;;;3.43;100.00
80116;BME280;69423;47.608;19.366;2023-11-21T01:36:33;98446.84;;;3.48;100.00
80116;BME280;69423;47.608;19.366;2023-11-21T01:37:05;98451.53;;;3.54;100.00
80116;BME280;69423;47.608;19.366;2023-11-21T01:37:39;98435.19;;;3.51;100.00
80116;BME280;69423;47.608;19.366;2023-11-21T01:38:10;98439.91;;;3.47;100.00
80116;BME280;69423;47.608;19.366;2023-11-21T01:38:41;98442.19;;;3.42;100.00
80116;BME280;69423;47.608;19.366;2023-11-21T01:39:12;98446.59;;;3.41;100.00
80116;BME280;69423;47.608;19.366;2023-11-21T01:39:46;98441.34;;;3.41;100.00
80116;BME280;69423;47.608;19.366;2023-11-21T01:40:17;98448.13;;;3.44;100.00
80116;BME280;69423;47.608;19.366;2023-11-21T01:40:48;98450.16;;;3.50;100.00
80116;BME280;69423;47.608;19.366;2023-11-21T01:41:20;98447.22;;;3.53;100.00
80116;BME280;69423;47.608;19.366;2023-11-21T01:41:51;98447.06;;;3.55;100.00
80116;BME280;69423;47.608;19.366;2023-11-21T01:42:23;98440.38;;;3.60;100.00
80116;BME280;69423;47.608;19.366;2023-11-21T01:42:54;98443.16;;;3.59;100.00
80116;BME280;69423;47.608;19.366;2023-11-21T01:43:25;98439.53;;;3.60;100.00
80116;BME280;69423;47.608;19.366;2023-11-21T01:43:56;98439.53;;;3.60;100.00
80116;BME280;69423;47.608;19.366;2023-11-21T01:44:27;98442.47;;;3.57;100.00
80116;BME280;69423;47.608;19.366;2023-11-21T01:44:58;98444.59;;;3.53;100.00
80116;BME280;69423;47.608;19.366;2023-11-21T01:45:30;98435.84;;;3.53;100.00
80116;BME280;69423;47.608;19.366;2023-11-21T01:46:05;98437.66;;;3.52;100.00
80116;BME280;69423;47.608;19.366;2023-11-21T01:46:38;98452.94;;;3.49;100.00
80116;BME280;69423;47.608;19.366;2023-11-21T01:47:10;98439.91;;;3.47;100.00
80116;BME280;69423;47.608;19.366;2023-11-21T01:47:42;98437.28;;;3.47;100.00
80116;BME280;69423;47.608;19.366;2023-11-21T01:48:15;98447.69;;;3.49;100.00
80116;BME280;69423;47.608;19.366;2023-11-21T01:48:48;98431.03;;;3.48;100.00
80116;BME280;69423;47.608;19.366;2023-11-21T01:49:19;98438.09;;;3.48;100.00
80116;BME280;69423;47.608;19.366;2023-11-21T01:49:51;98439.78;;;3.49;100.00
80116;BME280;69423;47.608;19.366;2023-11-21T01:50:22;98444.22;;;3.48;100.00
80116;BME280;69423;47.608;19.366;2023-11-21T01:50:54;98428.09;;;3.51;100.00
80116;BME280;69423;47.608;19.366;2023-11-21T01:51:25;98437.56;;;3.62;100.00
80116;BME280;69423;47.608;19.366;2023-11-21T01:51:57;98433.66;;;3.66;100.00
80116;BME280;69423;47.608;19.366;2023-11-21T01:52:29;98431.69;;;3.68;100.00
80116;BME280;69423;47.608;19.366;2023-11-21T01:53:00;98434.34;;;3.68;100.00
80116;BME280;69423;47.608;19.366;2023-11-21T01:53:32;98433.66;;;3.66;100.00
80116;BME280;69423;47.608;19.366;2023-11-21T01:54:03;98439.25;;;3.63;100.00
80116;BME280;69423;47.608;19.366;2023-11-21T01:54:35;98435.72;;;3.54;100.00
80116;BME280;69423;47.608;19.366;2023-11-21T01:55:08;98434.50;;;3.49;100.00
80116;BME280;69423;47.608;19.366;2023-11-21T01:55:41;98437.66;;;3.52;100.00
80116;BME280;69423;47.608;19.366;2023-11-21T01:56:14;98421.53;;;3.55;100.00
80116;BME280;69423;47.608;19.366;2023-11-21T01:56:46;98431.47;;;3.61;100.00
80116;BME280;69423;47.608;19.366;2023-11-21T01:57:18;98433.66;;;3.66;100.00
80116;BME280;69423;47.608;19.366;2023-11-21T01:57:51;98431.34;;;3.63;100.00
80116;BME280;69423;47.608;19.366;2023-11-21T01:58:22;98427.84;;;3.62;100.00
80116;BME280;69423;47.608;19.366;2023-11-21T01:58:53;98427.34;;;3.59;100.00
80116;BME280;69423;47.608;19.366;2023-11-21T01:59:26;98440.81;;;3.56;100.00
80116;BME280;69423;47.608;19.366;2023-11-21T01:59:58;98434.56;;;3.57;100.00
80116;BME280;69423;47.608;19.366;2023-11-21T02:00:31;98434.25;;;3.60;100.00
80116;BME280;69423;47.608;19.366;2023-11-21T02:01:04;98440.22;;;3.62;100.00
80116;BME280;69423;47.608;19.366;2023-11-21T02:01:35;98428.47;;;3.56;100.00
80116;BME280;69423;47.608;19.366;2023-11-21T02:02:08;98430.13;;;3.57;100.00
80116;BME280;69423;47.608;19.366;2023-11-21T02:02:40;98429.66;;;3.62;100.00
80116;BME280;69423;47.608;19.366;2023-11-21T02:03:11;98430.72;;;3.69;100.00
80116;BME280;69423;47.608;19.366;2023-11-21T02:03:42;98436.22;;;3.76;100.00
80116;BME280;69423;47.608;19.366;2023-11-21T02:04:14;98432.59;;;3.77;100.00
80116;BME280;69423;47.608;19.366;2023-11-21T02:04:45;98437.72;;;3.78;100.00
80116;BME280;69423;47.608;19.366;2023-11-21T02:05:18;98440.50;;;3.77;100.00
80116;BME280;69423;47.608;19.366;2023-11-21T02:05:50;98429.13;;;3.76;100.00
80116;BME280;69423;47.608;19.366;2023-11-21T02:06:21;98433.72;;;3.74;100.00
80116;BME280;69423;47.608;19.366;2023-11-21T02:06:52;98425.81;;;3.74;100.00
80116;BME280;69423;47.608;19.366;2023-11-21T02:07:24;98430.13;;;3.75;100.00
80116;BME280;69423;47.608;19.366;2023-11-21T02:07:56;98423.31;;;3.73;100.00
80116;BME280;69423;47.608;19.366;2023-11-21T02:08:27;98426.63;;;3.75;100.00
80116;BME280;69423;47.608;19.366;2023-11-21T02:08:58;98423.84;;;3.76;100.00
80116;BME280;69423;47.608;19.366;2023-11-21T02:09:30;98425.53;;;3.77;100.00
80116;BME280;69423;47.608;19.366;2023-11-21T02:10:02;98427.31;;;3.77;100.00
80116;BME280;69423;47.608;19.366;2023-11-21T02:10:33;98418.44;;;3.78;100.00
80116;BME280;69423;47.608;19.366;2023-11-21T02:11:04;98426.34;;;3.78;100.00
80116;BME280;69423;47.608;19.366;2023-11-21T02:11:36;98426.34;;;3.78;100.00
80116;BME280;69423;47.608;19.366;2023-11-21T02:12:09;98422.22;;;3.75;100.00
80116;BME280;69423;47.608;19.366;2023-11-21T02:12:42;98419.56;;;3.75;100.00
80116;BME280;69423;47.608;19.366;2023-11-21T02:13:13;98413.63;;;3.73;100.00
80116;BME280;69423;47.608;19.366;2023-11-21T02:13:44;98416.41;;;3.72;100.00
80116;BME280;69423;47.608;19.366;2023-11-21T02:14:16;98414.22;;;3.67;100.00
80116;BME280;69423;47.608;19.366;2023-11-21T02:14:51;98414.22;;;3.67;100.00
80116;BME280;69423;47.608;19.366;2023-11-21T02:15:22;98419.88;;;3.72;100.00
80116;BME280;69423;47.608;19.366;2023-11-21T02:15:54;98415.06;;;3.68;100.00
80116;BME280;69423;47.608;19.366;2023-11-21T02:16:25;98412.56;;;3.66;100.00
80116;BME280;69423;47.608;19.366;2023-11-21T02:16:56;98416.19;;;3.65;100.00
80116;BME280;69423;47.608;19.366;2023-11-21T02:17:28;98411.22;;;3.62;100.00
80116;BME280;69423;47.608;19.366;2023-11-21T02:17:59;98414.84;;;3.61;100.00
80116;BME280;69423;47.608;19.366;2023-11-21T02:18:31;98422.91;;;3.59;100.00
80116;BME280;69423;47.608;19.366;2023-11-21T02:19:04;98415.13;;;3.58;100.00
80116;BME280;69423;47.608;19.366;2023-11-21T02:19:39;98415.44;;;3.55;100.00
80116;BME280;69423;47.608;19.366;2023-11-21T02:20:12;98408.34;;;3.55;100.00
80116;BME280;69423;47.608;19.366;2023-11-21T02:20:46;98413.63;;;3.55;100.00
80116;BME280;69423;47.608;19.366;2023-11-21T02:21:17;98409.19;;;3.56;100.00
80116;BME280;69423;47.608;19.366;2023-11-21T02:21:51;98420.56;;;3.56;100.00
80116;BME280;69423;47.608;19.366;2023-11-21T02:22:26;98411.81;;;3.56;100.00
80116;BME280;69423;47.608;19.366;2023-11-21T02:23:00;98408.50;;;3.54;100.00
80116;BME280;69423;47.608;19.366;2023-11-21T02:23:31;98414.63;;;3.54;100.00
80116;BME280;69423;47.608;19.366;2023-11-21T02:24:02;98403.56;;;3.51;100.00
80116;BME280;69423;47.608;19.366;2023-11-21T02:24:33;98415.59;;;3.53;100.00
80116;BME280;69423;47.608;19.366;2023-11-21T02:25:04;98410.47;;;3.52;100.00
80116;BME280;69423;47.608;19.366;2023-11-21T02:25:36;98408.81;;;3.51;100.00
80116;BME280;69423;47.608;19.366;2023-11-21T02:26:07;98407.16;;;3.50;100.00
80116;BME280;69423;47.608;19.366;2023-11-21T02:26:40;98414.09;;;3.51;100.00
80116;BME280;69423;47.608;19.366;2023-11-21T02:27:13;98408.16;;;3.49;100.00
80116;BME280;69423;47.608;19.366;2023-11-21T02:27:51;98411.31;;;3.52;100.00
80116;BME280;69423;47.608;19.366;2023-11-21T02:28:22;98411.31;;;3.52;100.00
80116;BME280;69423;47.608;19.366;2023-11-21T02:28:56;98410.47;;;3.52;100.00
80116;BME280;69423;47.608;19.366;2023-11-21T02:29:29;98408.16;;;3.49;100.00
80116;BME280;69423;47.608;19.366;2023-11-21T02:30:00;98407.81;;;3.52;100.00
80116;BME280;69423;47.608;19.366;2023-11-21T02:30:32;98414.78;;;3.53;100.00
80116;BME280;69423;47.608;19.366;2023-11-21T02:31:03;98409.97;;;3.48;100.00
80116;BME280;69423;47.608;19.366;2023-11-21T02:31:35;98402.19;;;3.47;100.00
80116;BME280;69423;47.608;19.366;2023-11-21T02:32:06;98404.16;;;3.44;100.00
80116;BME280;69423;47.608;19.366;2023-11-21T02:32:37;98406.94;;;3.43;100.00
80116;BME280;69423;47.608;19.366;2023-11-21T02:33:09;98415.91;;;3.50;100.00
80116;BME280;69423;47.608;19.366;2023-11-21T02:33:40;98405.38;;;3.50;100.00
80116;BME280;69423;47.608;19.366;2023-11-21T02:34:11;98408.69;;;3.52;100.00
80116;BME280;69423;47.608;19.366;2023-11-21T02:34:44;98409.78;;;3.50;100.00
80116;BME280;69423;47.608;19.366;2023-11-21T02:35:15;98411.91;;;3.46;100.00
80116;BME280;69423;47.608;19.366;2023-11-21T02:35:49;98411.91;;;3.46;100.00
80116;BME280;69423;47.608;19.366;2023-11-21T02:36:20;98405.13;;;3.43;100.00
80116;BME280;69423;47.608;19.366;2023-11-21T02:36:52;98404.84;;;3.47;100.00
80116;BME280;69423;47.608;19.366;2023-11-21T02:37:24;98406.66;;;3.46;100.00
80116;BME280;69423;47.608;19.366;2023-11-21T02:37:56;98404.84;;;3.47;100.00
80116;BME280;69423;47.608;19.366;2023-11-21T02:38:27;98406.66;;;3.46;100.00
80116;BME280;69423;47.608;19.366;2023-11-21T02:38:58;98409.97;;;3.48;100.00
80116;BME280;69423;47.608;19.366;2023-11-21T02:39:29;98408.34;;;3.55;100.00
80116;BME280;69423;47.608;19.366;2023-11-21T02:40:00;98401.28;;;3.56;100.00
80116;BME280;69423;47.608;19.366;2023-11-21T02:40:31;98398.81;;;3.54;100.00
80116;BME280;69423;47.608;19.366;2023-11-21T02:41:02;98401.75;;;3.51;100.00
80116;BME280;69423;47.608;19.366;2023-11-21T02:41:33;98405.50;;;3.49;100.00
80116;BME280;69423;47.608;19.366;2023-11-21T02:42:05;98404.38;;;3.51;100.00
80116;BME280;69423;47.608;19.366;2023-11-21T02:42:36;98390.06;;;3.54;100.00
80116;BME280;69423;47.608;19.366;2023-11-21T02:43:07;98399.63;;;3.55;100.00
80116;BME280;69423;47.608;19.366;2023-11-21T02:43:38;98404.91;;;3.55;100.00
80116;BME280;69423;47.608;19.366;2023-11-21T02:44:10;98400.00;;;3.60;100.00
80116;BME280;69423;47.608;19.366;2023-11-21T02:44:41;98394.91;;;3.58;100.00
80116;BME280;69423;47.608;19.366;2023-11-21T02:45:13;98394.38;;;3.55;100.00